Time;durP1;ratioP1;P1;durP2;ratioP2;P2;SDS_P1;SDS_P2;PMS_P1;PMS_P2;Temp;Humidity;BMP_temperature;BMP_pressure;BME280_temperature;BME280_humidity;BME280_pressure;Samples;Min_cycle;Max_cycle;Signal;HPM_P1;HPM_P2
2023/01/14 00:01:00;;;;;;;15.68;4.43;;;7.80;99.90;;;;;;4997043;27;95912;-32
2023/01/14 00:03:27;;;;;;;19.35;4.93;;;7.80;99.90;;;;;;4997302;27;94082;-34
2023/01/14 00:05:58;;;;;;;12.27;4.32;;;7.80;99.90;;;;;;4997174;27;93459;-33
2023/01/14 00:08:24;;;;;;;20.38;4.75;;;7.80;99.90;;;;;;4996984;28;92985;-33
2023/01/14 00:10:49;;;;;;;15.23;4.57;;;7.80;99.90;;;;;;4996596;27;94679;-34
2023/01/14 00:13:15;;;;;;;12.23;4.63;;;7.80;99.90;;;;;;4997489;28;94398;-33
2023/01/14 00:15:50;;;;;;;12.85;4.20;;;7.70;99.90;;;;;;4996753;27;92092;-33
2023/01/14 00:18:15;;;;;;;11.73;4.18;;;7.70;99.90;;;;;;4997358;27;92920;-33
2023/01/14 00:20:41;;;;;;;11.85;4.57;;;7.70;99.90;;;;;;4996282;28;94556;-35
2023/01/14 00:23:06;;;;;;;16.13;4.60;;;7.70;99.90;;;;;;4996641;28;94039;-33
2023/01/14 00:25:34;;;;;;;12.80;4.75;;;7.70;99.90;;;;;;4997207;27;95015;-33
2023/01/14 00:28:00;;;;;;;11.93;4.53;;;7.60;99.90;;;;;;4996401;27;94020;-33
2023/01/14 00:30:25;;;;;;;12.30;3.42;;;7.60;99.90;;;;;;4996945;27;95400;-34
2023/01/14 00:32:51;;;;;;;18.13;4.32;;;7.60;99.90;;;;;;4996580;27;95121;-32
2023/01/14 00:35:16;;;;;;;18.30;6.10;;;7.60;99.90;;;;;;5004935;28;92255;-36
2023/01/14 00:37:42;;;;;;;18.25;4.78;;;7.50;99.90;;;;;;5003455;28;94262;-33
2023/01/14 00:40:08;;;;;;;17.58;4.72;;;7.50;99.90;;;;;;4995891;27;94495;-32
2023/01/14 00:42:34;;;;;;;12.60;4.82;;;7.50;99.90;;;;;;4997257;27;95655;-35
2023/01/14 00:44:59;;;;;;;15.93;3.67;;;7.50;99.90;;;;;;4996290;28;92098;-34
2023/01/14 00:47:25;;;;;;;16.15;4.00;;;7.50;99.90;;;;;;4996659;27;93295;-35
2023/01/14 00:49:51;;;;;;;12.63;3.53;;;7.50;99.90;;;;;;4999640;28;94767;-32
2023/01/14 00:52:16;;;;;;;15.32;4.30;;;7.40;99.90;;;;;;4999764;28;94349;-33
2023/01/14 00:54:42;;;;;;;13.55;5.65;;;7.40;99.90;;;;;;5000273;27;95547;-31
2023/01/14 00:57:07;;;;;;;12.48;4.43;;;7.50;99.90;;;;;;4999934;27;92273;-31
2023/01/14 00:59:33;;;;;;;9.30;4.53;;;7.40;99.90;;;;;;4999864;27;94484;-34
2023/01/14 01:01:58;;;;;;;18.38;4.65;;;7.40;99.90;;;;;;4999558;27;93736;-35
2023/01/14 01:04:24;;;;;;;13.88;4.43;;;7.50;99.90;;;;;;5000224;27;94382;-35
2023/01/14 01:06:50;;;;;;;13.50;4.30;;;7.40;99.90;;;;;;4999323;27;92086;-33
2023/01/14 01:09:16;;;;;;;12.05;3.90;;;7.40;99.90;;;;;;4999540;27;94664;-32
2023/01/14 01:11:41;;;;;;;16.48;4.10;;;7.50;99.90;;;;;;5000103;28;94580;-33
2023/01/14 01:14:07;;;;;;;16.88;4.45;;;7.50;99.90;;;;;;4999561;27;93473;-33
2023/01/14 01:16:32;;;;;;;16.77;4.32;;;7.40;99.90;;;;;;5000357;28;92328;-33
2023/01/14 01:18:58;;;;;;;14.10;4.18;;;7.40;99.90;;;;;;4998976;27;97573;-32
2023/01/14 01:21:24;;;;;;;10.10;4.00;;;7.30;99.90;;;;;;4999680;27;95972;-33
2023/01/14 01:23:50;;;;;;;13.30;3.67;;;7.30;99.90;;;;;;5000186;27;94036;-33
2023/01/14 01:26:19;;;;;;;11.15;4.28;;;7.50;99.90;;;;;;4999579;27;94228;-33
2023/01/14 01:28:48;;;;;;;18.67;5.78;;;7.40;99.90;;;;;;4998998;27;95141;-32
2023/01/14 01:31:14;;;;;;;16.20;4.13;;;7.40;99.90;;;;;;4999029;27;94196;-33
2023/01/14 01:33:40;;;;;;;14.48;4.30;;;7.50;99.90;;;;;;4999815;27;92386;-34
2023/01/14 01:36:12;;;;;;;12.88;4.50;;;7.40;99.90;;;;;;4999310;27;92320;-32
2023/01/14 01:38:38;;;;;;;9.38;3.95;;;7.50;99.90;;;;;;4999641;28;94968;-32
2023/01/14 01:41:04;;;;;;;13.68;4.75;;;7.50;99.90;;;;;;4998989;27;94839;-33
2023/01/14 01:43:31;;;;;;;17.70;3.67;;;7.50;99.90;;;;;;4999385;27;95409;-34
2023/01/14 01:45:58;;;;;;;19.90;5.07;;;7.50;99.90;;;;;;5011029;28;93122;-32
2023/01/14 01:48:29;;;;;;;11.70;3.88;;;7.40;99.90;;;;;;5015526;28;94632;-32
2023/01/14 01:51:05;;;;;;;10.18;5.40;;;7.40;99.90;;;;;;4999023;27;95085;-33
2023/01/14 01:53:33;;;;;;;13.02;4.82;;;7.40;99.90;;;;;;4999361;27;93530;-36
2023/01/14 01:56:00;;;;;;;11.43;4.13;;;7.40;99.90;;;;;;4999519;27;92505;-34
2023/01/14 01:58:26;;;;;;;13.38;4.63;;;7.40;99.90;;;;;;4999365;27;95150;-32
2023/01/14 02:00:53;;;;;;;17.23;5.18;;;7.50;99.90;;;;;;4997865;27;94019;-31
2023/01/14 02:03:41;;;;;;;11.73;3.63;;;7.40;99.90;;;;;;4999336;27;95077;-35
2023/01/14 02:06:07;;;;;;;18.92;5.15;;;7.40;99.90;;;;;;4999117;28;93581;-35
2023/01/14 02:08:38;;;;;;;11.30;4.03;;;7.40;99.90;;;;;;4998176;27;96057;-33
2023/01/14 02:11:30;;;;;;;15.52;4.55;;;7.40;99.90;;;;;;4999179;28;95303;-32
2023/01/14 02:14:32;;;;;;;20.13;4.72;;;7.40;99.90;;;;;;4997978;27;94718;-34
2023/01/14 02:17:17;;;;;;;16.55;5.38;;;7.40;99.90;;;;;;4990159;28;94334;-32
2023/01/14 02:19:57;;;;;;;12.93;4.53;;;7.40;99.90;;;;;;4998283;28;94045;-32
2023/01/14 02:22:44;;;;;;;14.80;5.03;;;7.40;99.90;;;;;;4998966;28;94498;-32
2023/01/14 02:25:22;;;;;;;22.55;4.85;;;7.40;99.90;;;;;;4999199;28;92177;-32
2023/01/14 02:28:09;;;;;;;17.30;4.25;;;7.40;99.90;;;;;;4999237;27;93094;-35
2023/01/14 02:30:51;;;;;;;11.00;4.97;;;7.40;99.90;;;;;;4998982;27;94724;-32
2023/01/14 02:33:38;;;;;;;12.65;3.97;;;7.40;99.90;;;;;;4998052;27;94655;-32
2023/01/14 02:36:17;;;;;;;16.15;5.05;;;7.40;99.90;;;;;;4997824;27;95378;-33
2023/01/14 02:39:17;;;;;;;12.75;4.82;;;7.40;99.90;;;;;;4997913;28;93303;-33
2023/01/14 02:44:54;;;;;;;14.00;4.65;;;7.40;99.90;;;;;;4998254;27;94748;-35
2023/01/14 02:47:23;;;;;;;17.33;4.20;;;7.40;99.90;;;;;;4998446;27;94089;-34
2023/01/14 02:49:53;;;;;;;13.25;5.18;;;7.40;99.90;;;;;;4998329;27;93116;-34
2023/01/14 02:52:19;;;;;;;14.55;5.68;;;7.40;99.90;;;;;;4997504;27;94632;-35
2023/01/14 02:54:56;;;;;;;19.88;4.85;;;7.40;99.90;;;;;;4998595;28;94726;-33
2023/01/14 02:57:59;;;;;;;19.27;5.57;;;7.40;99.90;;;;;;4998812;27;92099;-32
2023/01/14 03:00:42;;;;;;;21.95;5.60;;;7.40;99.90;;;;;;4997964;27;94158;-33
2023/01/14 03:03:23;;;;;;;22.98;5.20;;;7.40;99.90;;;;;;4997388;27;95535;-35
2023/01/14 03:05:59;;;;;;;13.20;4.88;;;7.40;99.90;;;;;;4997783;27;94792;-35
2023/01/14 03:08:29;;;;;;;15.82;4.65;;;7.30;99.90;;;;;;4999050;27;93508;-33
2023/01/14 03:11:07;;;;;;;24.70;5.63;;;7.40;99.90;;;;;;4980658;28;94371;-32
2023/01/14 03:13:44;;;;;;;16.37;4.97;;;7.40;99.90;;;;;;4998327;28;95220;-34
2023/01/14 03:16:36;;;;;;;14.80;5.00;;;7.40;99.90;;;;;;4997512;27;95020;-32
2023/01/14 03:19:11;;;;;;;16.45;4.82;;;7.40;99.90;;;;;;4998873;27;93349;-31
2023/01/14 03:21:41;;;;;;;14.38;4.05;;;7.30;99.90;;;;;;4998100;28;91487;-35
2023/01/14 03:24:17;;;;;;;16.92;4.38;;;7.40;99.90;;;;;;4997861;27;96538;-33
2023/01/14 03:26:46;;;;;;;16.08;3.92;;;7.40;99.90;;;;;;4997307;27;94267;-32
2023/01/14 03:29:16;;;;;;;10.77;4.60;;;7.30;99.90;;;;;;4997502;28;95137;-34
2023/01/14 03:31:48;;;;;;;13.35;4.68;;;7.30;99.90;;;;;;4997298;27;93054;-32
2023/01/14 03:34:19;;;;;;;15.85;4.80;;;7.30;99.90;;;;;;4997510;28;94816;-33
2023/01/14 03:36:47;;;;;;;17.00;4.90;;;7.30;99.90;;;;;;4997641;28;94537;-34
2023/01/14 03:39:22;;;;;;;10.80;4.70;;;7.30;99.90;;;;;;4997351;27;93044;-34
2023/01/14 03:45:02;;;;;;;14.63;4.75;;;7.10;99.90;;;;;;4996597;27;94639;-31
2023/01/14 03:47:31;;;;;;;14.00;5.20;;;7.10;99.90;;;;;;5007720;28;94644;-32
2023/01/14 03:50:00;;;;;;;13.80;4.45;;;7.00;99.90;;;;;;5001314;27;94990;-32
2023/01/14 03:52:58;;;;;;;13.43;3.97;;;6.90;99.90;;;;;;4996817;27;94278;-32
2023/01/14 03:55:32;;;;;;;20.15;4.60;;;6.90;99.90;;;;;;4999038;27;95680;-32
2023/01/14 03:58:08;;;;;;;8.35;3.63;;;6.80;99.90;;;;;;5014151;28;94575;-32
2023/01/14 04:00:52;;;;;;;13.00;3.65;;;6.80;99.90;;;;;;5017472;28;94651;-34
2023/01/14 04:03:19;;;;;;;13.27;4.47;;;6.80;99.90;;;;;;5017454;28;94312;-35
2023/01/14 04:05:45;;;;;;;13.38;5.13;;;6.70;99.90;;;;;;5008754;28;95034;-33
2023/01/14 04:08:10;;;;;;;14.82;4.50;;;6.60;99.90;;;;;;5011182;28;93974;-35
2023/01/14 04:10:36;;;;;;;9.25;3.55;;;6.70;99.90;;;;;;5011789;28;92176;-33
2023/01/14 04:15:46;;;;;;;9.45;3.45;;;6.70;99.90;;;;;;4997001;28;94834;-35
2023/01/14 04:18:12;;;;;;;8.75;4.38;;;6.70;99.90;;;;;;4996699;28;94583;-33
2023/01/14 04:20:37;;;;;;;15.80;4.60;;;6.70;99.90;;;;;;5000045;28;95642;-34
2023/01/14 04:23:03;;;;;;;13.73;4.25;;;6.70;99.90;;;;;;5006718;28;92660;-32
2023/01/14 04:25:29;;;;;;;12.25;3.90;;;6.60;99.90;;;;;;5010930;28;94587;-32
2023/01/14 04:27:54;;;;;;;11.57;4.18;;;6.70;99.90;;;;;;5005220;28;94079;-32
2023/01/14 04:30:20;;;;;;;25.58;5.15;;;6.70;99.90;;;;;;5002874;28;94461;-32
2023/01/14 04:32:46;;;;;;;13.00;4.05;;;6.70;99.90;;;;;;4996653;28;94251;-36
2023/01/14 04:35:11;;;;;;;9.13;4.30;;;6.70;99.90;;;;;;4997087;28;96372;-34
2023/01/14 04:37:37;;;;;;;11.88;4.47;;;6.60;99.90;;;;;;4996498;28;94367;-32
2023/01/14 04:40:03;;;;;;;11.05;5.03;;;6.60;99.90;;;;;;4997073;28;93560;-35
2023/01/14 04:42:31;;;;;;;15.30;5.03;;;6.70;99.90;;;;;;4995929;28;92912;-31
2023/01/14 04:44:59;;;;;;;18.80;5.03;;;6.60;99.90;;;;;;4995647;28;95307;-33
2023/01/14 04:47:25;;;;;;;22.95;5.65;;;6.60;99.90;;;;;;4996996;28;95671;-33
2023/01/14 04:49:51;;;;;;;15.43;4.97;;;6.50;99.90;;;;;;4996845;28;92999;-33
2023/01/14 04:52:17;;;;;;;14.52;5.35;;;6.60;99.90;;;;;;5008993;28;94665;-33
2023/01/14 04:54:43;;;;;;;15.07;5.97;;;6.60;99.90;;;;;;4997945;28;95135;-32
2023/01/14 04:57:09;;;;;;;12.27;5.00;;;6.50;99.90;;;;;;4996028;28;94480;-35
2023/01/14 04:59:34;;;;;;;19.77;5.55;;;6.50;99.90;;;;;;4996715;28;92616;-33
2023/01/14 05:02:00;;;;;;;25.25;6.47;;;6.50;99.90;;;;;;4997265;28;92788;-32
2023/01/14 05:04:26;;;;;;;18.25;7.07;;;6.50;99.90;;;;;;4996351;28;95199;-33
2023/01/14 05:06:52;;;;;;;15.88;5.28;;;6.40;99.90;;;;;;4997094;28;94466;-35
2023/01/14 05:09:18;;;;;;;13.30;6.10;;;6.50;99.90;;;;;;4996406;28;94262;-32
2023/01/14 05:11:43;;;;;;;15.00;4.90;;;6.50;99.90;;;;;;4996485;28;93179;-33
2023/01/14 05:14:09;;;;;;;15.75;4.70;;;6.50;99.90;;;;;;5006439;28;96460;-33
2023/01/14 05:16:35;;;;;;;20.33;5.68;;;6.40;99.90;;;;;;5000693;28;94300;-33
2023/01/14 05:19:01;;;;;;;17.38;5.47;;;6.40;99.90;;;;;;5004275;28;93240;-34
2023/01/14 05:21:26;;;;;;;10.75;4.47;;;6.40;99.90;;;;;;5002781;28;94169;-33
2023/01/14 05:23:52;;;;;;;27.40;6.53;;;6.40;99.90;;;;;;5010017;28;94593;-33
2023/01/14 05:26:18;;;;;;;22.75;6.18;;;6.40;99.90;;;;;;5008003;28;95266;-32
2023/01/14 05:28:43;;;;;;;19.08;5.80;;;6.40;99.90;;;;;;4998672;28;94868;-34
2023/01/14 05:31:09;;;;;;;12.63;4.95;;;6.40;99.90;;;;;;4996853;28;94691;-33
2023/01/14 05:33:35;;;;;;;17.33;6.00;;;6.30;99.90;;;;;;5009440;28;95386;-32
2023/01/14 05:36:01;;;;;;;26.08;7.25;;;6.30;99.90;;;;;;4998545;28;95568;-34
2023/01/14 05:38:27;;;;;;;28.08;6.60;;;6.30;99.90;;;;;;4999648;28;92791;-33
2023/01/14 05:40:53;;;;;;;24.90;7.78;;;6.30;99.90;;;;;;4999181;28;94985;-36
2023/01/14 05:46:08;;;;;;;17.67;7.25;;;6.20;99.90;;;;;;4999308;28;94531;-34
2023/01/14 05:48:34;;;;;;;24.92;6.30;;;6.20;99.90;;;;;;4999384;28;92655;-35
2023/01/14 05:51:02;;;;;;;19.67;6.05;;;6.20;99.90;;;;;;4999621;28;93752;-33
2023/01/14 05:53:28;;;;;;;19.05;6.85;;;6.20;99.90;;;;;;4999854;28;94389;-32
2023/01/14 05:55:55;;;;;;;19.67;7.75;;;6.30;99.90;;;;;;4980498;28;94189;-34
2023/01/14 05:58:21;;;;;;;22.48;7.57;;;6.20;99.90;;;;;;4999184;28;93165;-33
2023/01/14 06:06:26;;;;;;;29.13;8.55;;;6.20;99.90;;;;;;5002820;28;94572;-33
2023/01/14 06:09:00;;;;;;;32.20;9.32;;;6.20;99.90;;;;;;4999727;28;93303;-32
2023/01/14 06:11:28;;;;;;;22.58;7.75;;;6.10;99.90;;;;;;4998921;28;92253;-33
2023/01/14 06:13:57;;;;;;;24.27;7.45;;;6.20;99.90;;;;;;5005490;28;94502;-34
2023/01/14 06:16:27;;;;;;;20.25;7.68;;;6.10;99.90;;;;;;5005954;28;94151;-34
2023/01/14 06:18:54;;;;;;;15.20;7.80;;;6.10;99.90;;;;;;4999202;28;94410;-35
2023/01/14 06:21:22;;;;;;;28.67;8.32;;;6.20;99.90;;;;;;4999493;28;93948;-32
2023/01/14 06:23:48;;;;;;;35.20;8.87;;;6.10;99.90;;;;;;4997403;28;97317;-33
2023/01/14 06:26:16;;;;;;;23.77;8.80;;;6.00;99.90;;;;;;5009669;28;95758;-34
2023/01/14 06:28:42;;;;;;;;;;;6.10;99.90;;;;;;5002497;28;94801;-35
2023/01/14 06:31:18;;;;;;;32.97;8.18;;;6.10;99.90;;;;;;5000053;28;94270;-32
2023/01/14 06:33:45;;;;;;;23.33;9.25;;;6.10;99.90;;;;;;4998150;28;94786;-32
2023/01/14 06:36:11;;;;;;;22.67;8.18;;;6.00;99.90;;;;;;4998675;28;95395;-33
2023/01/14 06:38:38;;;;;;;22.10;7.95;;;6.00;99.90;;;;;;4998640;28;93324;-31
2023/01/14 06:41:06;;;;;;;16.73;6.72;;;6.00;99.90;;;;;;4999100;28;91823;-33
2023/01/14 06:43:32;;;;;;;29.58;8.55;;;6.00;99.90;;;;;;4998546;28;94698;-31
2023/01/14 06:45:58;;;;;;;29.70;8.05;;;6.00;99.90;;;;;;4997509;28;94618;-34
2023/01/14 06:48:25;;;;;;;25.00;9.05;;;6.00;99.90;;;;;;4997644;28;94077;-32
2023/01/14 06:50:51;;;;;;;27.25;7.32;;;6.00;99.90;;;;;;4998545;28;92998;-32
2023/01/14 06:53:18;;;;;;;17.38;7.00;;;5.90;99.90;;;;;;4998330;28;94763;-34
2023/01/14 06:55:43;;;;;;;20.75;7.35;;;5.90;99.90;;;;;;4997907;28;92966;-34
2023/01/14 06:58:09;;;;;;;27.08;7.30;;;6.00;99.90;;;;;;4998987;28;95330;-32
2023/01/14 07:00:35;;;;;;;28.75;8.00;;;6.00;99.90;;;;;;4997965;28;94532;-32
2023/01/14 07:03:01;;;;;;;22.58;7.72;;;6.00;99.90;;;;;;5011981;28;93903;-32
2023/01/14 07:05:27;;;;;;;25.05;8.57;;;6.00;99.90;;;;;;4998774;28;93336;-33
2023/01/14 07:07:52;;;;;;;29.83;9.52;;;6.10;99.90;;;;;;4998274;28;93085;-34
2023/01/14 07:10:18;;;;;;;34.45;8.60;;;6.10;99.90;;;;;;5012554;28;94771;-32
2023/01/14 07:12:46;;;;;;;21.55;9.35;;;6.10;99.90;;;;;;5009594;28;95732;-32
2023/01/14 07:15:13;;;;;;;27.75;9.15;;;6.10;99.90;;;;;;4999506;28;95303;-33
2023/01/14 07:17:39;;;;;;;25.77;9.02;;;6.10;99.90;;;;;;4998232;28;93381;-31
2023/01/14 07:20:06;;;;;;;30.25;8.10;;;6.10;99.90;;;;;;4997660;28;92068;-33
2023/01/14 07:22:32;;;;;;;30.40;8.20;;;6.10;99.90;;;;;;4997953;28;94480;-33
2023/01/14 07:24:57;;;;;;;25.25;8.88;;;6.10;99.90;;;;;;5011700;28;94516;-34
2023/01/14 07:27:23;;;;;;;24.20;9.50;;;6.20;99.90;;;;;;4998421;28;93884;-32
2023/01/14 07:29:48;;;;;;;29.02;7.10;;;6.20;99.90;;;;;;4997278;28;93948;-35
2023/01/14 07:32:14;;;;;;;28.00;8.35;;;6.30;99.90;;;;;;4998222;28;94687;-31
2023/01/14 07:34:40;;;;;;;18.70;8.00;;;6.30;99.90;;;;;;4996952;28;95494;-32
2023/01/14 07:37:05;;;;;;;20.13;6.80;;;6.20;99.90;;;;;;4998316;28;93042;-32
2023/01/14 07:39:31;;;;;;;24.02;8.65;;;6.20;99.90;;;;;;4997375;28;94777;-32
2023/01/14 07:41:56;;;;;;;22.35;8.50;;;6.30;99.90;;;;;;4996727;28;94812;-35
2023/01/14 07:44:24;;;;;;;19.50;7.70;;;6.30;99.90;;;;;;5003901;28;94601;-32
2023/01/14 07:46:54;;;;;;;24.05;7.85;;;6.30;99.90;;;;;;5005117;28;92720;-32
2023/01/14 07:49:20;;;;;;;19.23;6.32;;;6.30;99.90;;;;;;5011666;28;92214;-35
2023/01/14 07:51:46;;;;;;;27.35;8.63;;;6.40;99.90;;;;;;4997378;28;94418;-35
2023/01/14 07:54:11;;;;;;;21.33;7.55;;;6.40;99.90;;;;;;4997650;28;94251;-33
2023/01/14 07:56:37;;;;;;;27.10;7.35;;;6.40;99.90;;;;;;4997660;28;94729;-33
2023/01/14 07:59:03;;;;;;;25.58;8.18;;;6.40;99.90;;;;;;4996653;28;94405;-32
2023/01/14 08:01:28;;;;;;;31.23;7.03;;;6.40;99.90;;;;;;4996032;28;95842;-32
2023/01/14 08:03:54;;;;;;;19.10;7.40;;;6.50;99.90;;;;;;4997091;28;95242;-32
2023/01/14 08:06:19;;;;;;;21.25;7.30;;;6.50;99.90;;;;;;5001100;28;94398;-33
2023/01/14 08:08:45;;;;;;;23.35;7.78;;;6.50;99.90;;;;;;5003029;28;94148;-35
2023/01/14 08:11:10;;;;;;;19.33;6.88;;;6.60;99.90;;;;;;5004088;28;95212;-33
2023/01/14 08:13:36;;;;;;;10.80;6.18;;;6.50;99.90;;;;;;4995893;28;93502;-34
2023/01/14 08:16:02;;;;;;;25.55;6.80;;;6.50;99.90;;;;;;5005862;27;93327;-32
2023/01/14 08:18:31;;;;;;;17.67;6.38;;;6.60;99.90;;;;;;5023879;27;92384;-34
2023/01/14 08:21:05;;;;;;;17.77;7.95;;;6.60;99.90;;;;;;5020293;27;94580;-32
2023/01/14 08:23:31;;;;;;;15.80;5.50;;;6.60;99.90;;;;;;5006824;27;94164;-31
2023/01/14 08:26:05;;;;;;;22.00;6.10;;;6.70;99.90;;;;;;5011216;27;94342;-34
2023/01/14 08:28:32;;;;;;;17.77;6.25;;;6.60;99.90;;;;;;5009742;27;94467;-35
2023/01/14 08:31:11;;;;;;;18.30;5.93;;;6.70;99.90;;;;;;5019810;27;95804;-32
2023/01/14 08:33:37;;;;;;;25.13;6.68;;;6.70;99.90;;;;;;5022117;27;96152;-33
2023/01/14 08:36:06;;;;;;;20.60;5.72;;;6.70;99.90;;;;;;5011874;27;93740;-35
2023/01/14 08:38:35;;;;;;;19.60;7.45;;;6.70;99.90;;;;;;5023707;27;92199;-36
2023/01/14 08:41:10;;;;;;;23.02;6.65;;;6.70;99.90;;;;;;5020282;27;94841;-33
2023/01/14 08:43:36;;;;;;;16.67;5.22;;;6.70;99.90;;;;;;5017086;27;94585;-36
2023/01/14 08:46:03;;;;;;;13.27;5.40;;;6.70;99.90;;;;;;5020275;27;94777;-32
2023/01/14 08:48:29;;;;;;;24.60;7.85;;;6.60;99.90;;;;;;5022077;27;93394;-34
2023/01/14 08:51:00;;;;;;;15.38;5.78;;;6.60;99.90;;;;;;4992356;28;95250;-32
2023/01/14 08:53:27;;;;;;;22.23;7.13;;;6.60;99.90;;;;;;5010680;27;95988;-32
2023/01/14 08:55:59;;;;;;;20.05;5.50;;;6.60;99.90;;;;;;5009609;27;93829;-33
2023/01/14 08:58:25;;;;;;;18.45;6.40;;;6.50;99.90;;;;;;5004706;27;92183;-32
2023/01/14 09:00:56;;;;;;;18.63;5.45;;;6.50;99.90;;;;;;5015911;27;94832;-34
2023/01/14 09:03:22;;;;;;;18.75;5.93;;;6.60;99.90;;;;;;5016637;27;94583;-31
2023/01/14 09:05:47;;;;;;;21.58;5.90;;;6.50;99.90;;;;;;5005965;27;94608;-32
2023/01/14 09:19:13;;;;;;;19.73;5.60;;;6.60;99.90;;;;;;5014464;27;93334;-33
2023/01/14 09:21:39;;;;;;;22.60;5.35;;;6.70;99.90;;;;;;5023449;27;94828;-32
2023/01/14 09:24:04;;;;;;;30.98;7.10;;;6.60;99.90;;;;;;5004495;27;94635;-35
2023/01/14 09:26:30;;;;;;;20.15;7.18;;;6.60;99.90;;;;;;5020828;27;93221;-33
2023/01/14 09:28:56;;;;;;;13.50;5.47;;;6.60;99.90;;;;;;5011604;27;92191;-33
2023/01/14 09:31:21;;;;;;;13.60;5.75;;;6.60;99.90;;;;;;5023754;27;94781;-32
2023/01/14 09:33:47;;;;;;;20.65;6.85;;;6.60;99.90;;;;;;5012297;27;96332;-33
2023/01/14 09:36:12;;;;;;;15.40;5.30;;;6.70;99.90;;;;;;5015538;27;94099;-33
2023/01/14 09:38:38;;;;;;;20.25;6.07;;;6.70;99.90;;;;;;5025784;27;93226;-33
2023/01/14 09:41:21;;;;;;;17.23;5.35;;;6.60;99.90;;;;;;5023260;27;95517;-31
2023/01/14 09:43:47;;;;;;;18.02;6.28;;;6.60;99.90;;;;;;4944635;28;95568;-33
2023/01/14 09:46:13;;;;;;;16.90;5.82;;;6.60;99.90;;;;;;4943468;28;92269;-33
2023/01/14 09:48:40;;;;;;;19.83;5.97;;;6.70;99.90;;;;;;4945723;28;94469;-33
2023/01/14 09:51:47;;;;;;;15.68;5.80;;;6.60;99.90;;;;;;4943776;28;95582;-33
2023/01/14 09:54:26;;;;;;;12.18;5.95;;;6.70;99.90;;;;;;4945946;28;94522;-34
2023/01/14 09:56:59;;;;;;;12.60;5.35;;;6.70;99.90;;;;;;4944209;28;93225;-31
2023/01/14 09:59:44;;;;;;;10.57;5.25;;;6.70;99.90;;;;;;4944986;28;93621;-33
2023/01/14 10:02:33;;;;;;;5.75;3.72;;;6.70;99.90;;;;;;4945156;28;94342;-31
2023/01/14 10:05:22;;;;;;;11.57;4.57;;;6.70;99.90;;;;;;4934802;28;94550;-34
2023/01/14 10:07:49;;;;;;;8.98;3.85;;;6.70;99.90;;;;;;4940013;28;94894;-33
2023/01/14 10:10:25;;;;;;;6.53;3.60;;;6.70;99.90;;;;;;4940017;28;94150;-33
2023/01/14 10:12:54;;;;;;;14.45;6.03;;;6.80;99.90;;;;;;4939471;28;95001;-34
2023/01/14 10:15:23;;;;;;;7.35;4.68;;;6.80;99.90;;;;;;4939291;28;94486;-31
2023/01/14 10:17:56;;;;;;;5.75;3.97;;;6.80;99.90;;;;;;4940166;28;94764;-34
2023/01/14 10:20:50;;;;;;;14.02;5.38;;;6.90;99.90;;;;;;4939133;28;93073;-33
2023/01/14 10:23:20;;;;;;;11.30;5.32;;;6.90;99.90;;;;;;4926952;28;94483;-32
2023/01/14 10:25:51;;;;;;;11.35;5.53;;;6.80;99.90;;;;;;4939326;28;94577;-32
2023/01/14 10:28:21;;;;;;;10.35;4.68;;;6.90;99.90;;;;;;4939602;28;94147;-35
2023/01/14 10:30:48;;;;;;;9.50;5.72;;;6.90;99.90;;;;;;4939527;28;92572;-32
2023/01/14 10:33:16;;;;;;;20.30;5.22;;;6.90;99.90;;;;;;4938781;28;95588;-34
2023/01/14 10:36:01;;;;;;;16.58;6.55;;;6.90;99.90;;;;;;4939283;28;95534;-34
2023/01/14 10:38:28;;;;;;;11.48;6.80;;;6.90;99.90;;;;;;4940004;28;94403;-32
2023/01/14 10:41:06;;;;;;;14.23;5.70;;;6.90;99.90;;;;;;4939121;28;94477;-32
2023/01/14 10:43:37;;;;;;;11.00;6.80;;;6.90;99.90;;;;;;4938886;28;94285;-34
2023/01/14 10:46:02;;;;;;;7.47;6.05;;;6.90;99.90;;;;;;4938804;28;95059;-32
2023/01/14 10:48:36;;;;;;;8.23;5.20;;;6.90;99.90;;;;;;4940034;28;94486;-33
2023/01/14 10:51:35;;;;;;;7.80;4.95;;;7.00;99.90;;;;;;4939317;28;92251;-32
2023/01/14 10:54:16;;;;;;;9.70;5.78;;;7.00;99.90;;;;;;4938526;28;94300;-33
2023/01/14 10:57:16;;;;;;;10.63;5.68;;;7.20;99.90;;;;;;4939070;28;94465;-32
2023/01/14 10:59:50;;;;;;;7.97;5.50;;;7.20;99.90;;;;;;4938498;28;95068;-33
2023/01/14 11:02:32;;;;;;;7.53;4.95;;;7.30;99.90;;;;;;4938826;28;93352;-33
2023/01/14 11:04:58;;;;;;;5.50;4.55;;;7.30;99.90;;;;;;4938249;28;94945;-31
2023/01/14 11:07:29;;;;;;;6.78;4.35;;;7.30;99.90;;;;;;4938008;28;94008;-31
2023/01/14 11:09:58;;;;;;;7.90;4.38;;;7.30;99.90;;;;;;4938693;28;93978;-35
2023/01/14 11:12:30;;;;;;;10.75;4.57;;;7.30;99.90;;;;;;4939118;28;93892;-32
2023/01/14 11:14:56;;;;;;;7.97;4.53;;;7.30;99.90;;;;;;4938598;28;94508;-33
2023/01/14 11:17:23;;;;;;;10.98;4.32;;;7.30;99.90;;;;;;4938793;28;94293;-32
2023/01/14 11:19:51;;;;;;;5.50;3.58;;;7.40;99.90;;;;;;4938635;28;92758;-33
2023/01/14 11:22:17;;;;;;;6.60;3.90;;;7.40;99.90;;;;;;4939212;28;94321;-33
2023/01/14 11:24:45;;;;;;;4.05;2.85;;;7.50;99.90;;;;;;4937965;28;96205;-32
2023/01/14 11:27:23;;;;;;;9.67;3.30;;;7.50;99.90;;;;;;4937933;28;95567;-32
2023/01/14 11:29:54;;;;;;;2.20;2.00;;;7.60;99.90;;;;;;4938030;28;94587;-35
2023/01/14 11:32:25;;;;;;;7.55;2.72;;;7.60;99.90;;;;;;4938444;28;92147;-33
2023/01/14 11:34:55;;;;;;;4.07;3.30;;;7.60;99.90;;;;;;4937963;28;94607;-34
2023/01/14 11:37:47;;;;;;;4.28;2.90;;;7.70;99.90;;;;;;4938443;28;94748;-32
2023/01/14 11:41:28;;;;;;;5.85;2.90;;;7.70;99.90;;;;;;4935897;28;94350;-34
2023/01/14 11:43:10;;;;;;;4.33;3.13;;;7.70;99.90;;;;;;4938318;28;92172;-33
2023/01/14 11:45:36;;;;;;;6.28;3.05;;;7.70;99.90;;;;;;4938176;28;94790;-33
2023/01/14 11:48:01;;;;;;;3.65;2.75;;;7.70;99.90;;;;;;4936549;28;94622;-33
2023/01/14 11:50:34;;;;;;;4.03;2.65;;;7.70;99.90;;;;;;4939507;28;94915;-33
2023/01/14 11:53:16;;;;;;;3.08;2.80;;;7.70;99.90;;;;;;4940719;28;93862;-32
2023/01/14 11:55:44;;;;;;;3.15;2.85;;;7.70;99.90;;;;;;4947050;28;94490;-33
2023/01/14 11:58:18;;;;;;;5.30;2.17;;;7.70;99.90;;;;;;4953377;28;95093;-33
2023/01/14 12:00:52;;;;;;;3.97;2.42;;;7.80;99.90;;;;;;4953107;28;94978;-33
2023/01/14 12:03:47;;;;;;;5.65;2.65;;;7.80;99.90;;;;;;4953794;28;92775;-34
2023/01/14 12:06:20;;;;;;;4.38;2.92;;;7.80;99.90;;;;;;4924225;28;94460;-31
2023/01/14 12:08:53;;;;;;;3.80;2.30;;;7.80;99.90;;;;;;4934160;28;95706;-33
2023/01/14 12:11:45;;;;;;;6.78;3.67;;;7.90;99.90;;;;;;4942534;28;92133;-32
2023/01/14 12:17:11;;;;;;;4.10;2.75;;;7.90;99.90;;;;;;4932771;28;95785;-32
2023/01/14 12:19:39;;;;;;;5.15;3.33;;;7.90;99.90;;;;;;4944235;28;95470;-34
2023/01/14 12:22:15;;;;;;;7.32;2.38;;;7.90;99.90;;;;;;4942450;28;94400;-32
2023/01/14 12:24:47;;;;;;;4.72;2.55;;;8.00;99.90;;;;;;4943775;28;94482;-33
2023/01/14 12:27:42;;;;;;;7.43;3.42;;;8.00;99.90;;;;;;4941359;28;94873;-34
2023/01/14 12:30:13;;;;;;;5.93;2.63;;;7.90;99.90;;;;;;4940008;28;94416;-33
2023/01/14 12:32:43;;;;;;;3.78;2.53;;;7.90;99.90;;;;;;4940792;28;94729;-33
2023/01/14 12:35:14;;;;;;;2.17;1.98;;;8.00;99.90;;;;;;4942195;28;91621;-31
2023/01/14 12:37:57;;;;;;;3.08;2.33;;;8.10;99.90;;;;;;4933158;28;94643;-33
2023/01/14 12:46:13;;;;;;;7.60;2.80;;;8.10;99.90;;;;;;4933445;28;93423;-34
2023/01/14 12:48:39;;;;;;;4.47;2.55;;;8.20;99.90;;;;;;4934422;28;95211;-33
2023/01/14 12:51:09;;;;;;;3.17;2.78;;;8.20;99.90;;;;;;4941167;28;93307;-32
2023/01/14 12:53:54;;;;;;;5.53;2.65;;;8.10;99.90;;;;;;4947195;28;93025;-34
2023/01/14 12:56:35;;;;;;;4.07;2.42;;;8.10;99.90;;;;;;4941481;28;93681;-32
2023/01/14 12:59:08;;;;;;;3.15;2.28;;;8.20;99.90;;;;;;4936879;28;94248;-32
2023/01/14 13:01:42;;;;;;;6.75;2.53;;;8.20;99.90;;;;;;4942846;28;93832;-32
2023/01/14 13:04:22;;;;;;;3.25;2.35;;;8.30;99.90;;;;;;4946522;28;94601;-32
2023/01/14 13:07:01;;;;;;;3.17;2.30;;;8.20;99.90;;;;;;4934920;28;94523;-34
2023/01/14 13:09:52;;;;;;;2.13;1.90;;;8.30;99.90;;;;;;4934327;28;96213;-35
2023/01/14 13:12:37;;;;;;;2.08;1.98;;;8.30;99.90;;;;;;4935214;28;96151;-31
2023/01/14 13:15:21;;;;;;;6.60;1.85;;;8.40;99.90;;;;;;4934785;28;94494;-32
2023/01/14 13:17:57;;;;;;;4.57;2.03;;;8.50;99.90;;;;;;4935456;28;94547;-32
2023/01/14 13:20:29;;;;;;;5.25;1.80;;;8.50;99.90;;;;;;4934599;28;94286;-32
2023/01/14 13:22:56;;;;;;;2.08;1.88;;;8.50;99.90;;;;;;4928238;28;94582;-32
2023/01/14 13:25:40;;;;;;;2.37;2.17;;;8.40;99.90;;;;;;4944274;28;92113;-32
2023/01/14 13:28:12;;;;;;;2.58;1.95;;;8.50;99.90;;;;;;4946608;28;92890;-33
2023/01/14 13:30:48;;;;;;;2.75;1.95;;;8.50;99.90;;;;;;4923466;28;94396;-33
2023/01/14 13:33:27;;;;;;;4.70;2.17;;;8.60;99.90;;;;;;4946776;28;94694;-35
2023/01/14 13:36:17;;;;;;;4.35;1.65;;;8.70;99.90;;;;;;4941200;28;94685;-33
2023/01/14 13:38:48;;;;;;;1.92;1.63;;;8.70;99.90;;;;;;4936710;28;93097;-35
2023/01/14 13:41:40;;;;;;;3.22;2.17;;;8.70;99.90;;;;;;4941369;28;94367;-33
2023/01/14 13:44:24;;;;;;;5.03;1.92;;;8.70;99.90;;;;;;4943248;28;95853;-32
2023/01/14 13:47:00;;;;;;;2.15;1.65;;;8.70;99.90;;;;;;4940952;28;93063;-33